Terminal Aerodrome Forecast
Issued by NWS

Home | Current Version | Previous Version | Text Only | Print | Product List | Glossary On
Versions: 1 2 3 4 5 6 7 8 9 10 11 12 13 14 15 16 17 18 19
000
FTUS43 KDLH 260500
TAFBRD
TAF
KBRD 260525Z 2606/2706 36006KT P6SM -SN OVC024
      TEMPO 2608/2612 4SM -SN OVC018
     FM261300 34009KT P6SM -SN OVC012
     FM262100 36006KT P6SM OVC026
     FM270300 35006KT P6SM OVC015=

USA.gov is the U.S. government's official web portal to all federal, state and local government web resources and services.